createdAt,value
2019-02-07T00:01:36.120Z,30.39
2019-02-07T00:04:09.852Z,30.17
2019-02-07T00:06:43.460Z,29.88
2019-02-07T00:09:17.348Z,29.71
2019-02-07T00:11:51.291Z,29.51
2019-02-07T00:14:25.598Z,29.72
2019-02-07T00:16:59.327Z,29.49
2019-02-07T00:19:33.106Z,29.47
2019-02-07T00:22:08.780Z,29.38
2019-02-07T00:24:43.189Z,29.49
2019-02-07T00:27:18.939Z,29.01
2019-02-07T00:29:53.995Z,28.92
2019-02-07T00:32:28.671Z,28.50
2019-02-07T00:35:02.339Z,28.35
2019-02-07T00:37:37.382Z,28.21
2019-02-07T00:40:13.678Z,28.08
2019-02-07T00:42:47.440Z,27.89
2019-02-07T00:45:21.556Z,28.20
2019-02-07T00:47:56.393Z,27.92
2019-02-07T00:50:31.181Z,28.09
2019-02-07T00:53:04.730Z,27.91
2019-02-07T00:55:38.374Z,27.32
2019-02-07T00:58:12.911Z,27.17
2019-02-07T01:00:46.661Z,26.81
2019-02-07T01:03:20.516Z,27.17
2019-02-07T01:05:54.196Z,27.10
2019-02-07T01:08:27.850Z,27.07
2019-02-07T01:11:01.725Z,26.78
2019-02-07T01:13:41.994Z,26.84
2019-02-07T01:16:15.576Z,26.37
2019-02-07T01:18:49.135Z,25.92
2019-02-07T01:21:22.707Z,25.46
2019-02-07T01:23:57.335Z,25.53
2019-02-07T01:26:30.941Z,24.95
2019-02-07T01:29:04.628Z,24.72
2019-02-07T01:31:38.462Z,23.96
2019-02-07T01:34:13.755Z,24.67
2019-02-07T01:36:48.314Z,25.02
2019-02-07T01:39:22.008Z,25.25
2019-02-07T01:41:57.232Z,25.10
2019-02-07T01:44:31.712Z,25.83
2019-02-07T01:47:05.542Z,25.13
2019-02-07T01:49:39.239Z,24.73
2019-02-07T01:52:14.712Z,24.75
2019-02-07T01:54:48.174Z,24.37
2019-02-07T01:57:21.752Z,24.52
2019-02-07T01:59:55.293Z,23.85
2019-02-07T02:02:28.929Z,24.68
2019-02-07T02:05:03.928Z,24.68
2019-02-07T02:07:37.533Z,24.37
2019-02-07T02:10:19.719Z,23.88
2019-02-07T02:12:53.797Z,24.17
2019-02-07T02:15:27.706Z,24.09
2019-02-07T02:18:01.199Z,23.37
2019-02-07T02:20:36.004Z,23.75
2019-02-07T02:23:09.634Z,23.02
2019-02-07T02:25:44.837Z,23.22
2019-02-07T02:28:18.498Z,22.51
2019-02-07T02:30:53.675Z,22.28
2019-02-07T02:33:27.249Z,22.28
2019-02-07T02:36:02.548Z,22.80
2019-02-07T02:38:37.307Z,22.57
2019-02-07T02:41:11.337Z,22.58
2019-02-07T02:43:44.886Z,22.51
2019-02-07T02:46:18.453Z,22.24
2019-02-07T02:48:51.987Z,22.16
2019-02-07T02:51:25.399Z,21.60
2019-02-07T02:53:58.971Z,20.87
2019-02-07T02:56:32.426Z,20.78
2019-02-07T02:59:06.735Z,21.39
2019-02-07T03:01:40.295Z,20.99
2019-02-07T03:04:15.517Z,20.61
2019-02-07T03:06:49.165Z,20.50
2019-02-07T03:09:22.919Z,20.99
2019-02-07T03:11:56.609Z,20.65
2019-02-07T03:14:30.336Z,20.61
2019-02-07T03:17:04.132Z,21.87
2019-02-07T03:19:38.060Z,21.40
2019-02-07T03:22:12.092Z,21.91
2019-02-07T03:24:45.943Z,21.91
2019-02-07T03:27:19.535Z,21.52
2019-02-07T03:29:53.206Z,20.92
2019-02-07T03:32:27.880Z,21.27
2019-02-07T03:35:03.675Z,21.69
2019-02-07T03:37:39.872Z,21.41
2019-02-07T03:40:15.223Z,21.26
2019-02-07T03:42:49.241Z,21.43
2019-02-07T03:45:23.436Z,20.96
2019-02-07T03:47:57.469Z,20.43
2019-02-07T03:50:31.639Z,20.28
2019-02-07T03:53:07.412Z,20.52
2019-02-07T03:55:44.997Z,20.47
2019-02-07T03:58:20.500Z,20.73
2019-02-07T04:00:56.488Z,20.87
2019-02-07T04:03:32.416Z,22.42
2019-02-07T04:06:09.387Z,21.32
2019-02-07T04:08:45.151Z,20.86
2019-02-07T04:11:21.102Z,20.98
2019-02-07T04:13:56.989Z,20.98
2019-02-07T04:16:33.044Z,21.34
2019-02-07T04:19:08.925Z,21.61
2019-02-07T04:21:44.484Z,21.34
2019-02-07T04:24:20.582Z,21.46
2019-02-07T04:26:56.315Z,21.63
2019-02-07T04:29:32.153Z,20.85
2019-02-07T04:32:08.004Z,21.27
2019-02-07T04:34:45.674Z,21.28
2019-02-07T04:37:21.442Z,21.48
2019-02-07T04:39:57.346Z,21.55
2019-02-07T04:42:35.751Z,21.72
2019-02-07T04:45:12.284Z,21.89
2019-02-07T04:47:48.880Z,21.37
2019-02-07T04:50:30.429Z,21.21
2019-02-07T04:53:04.739Z,21.60
2019-02-07T04:55:38.994Z,21.31
2019-02-07T04:58:13.031Z,21.03
2019-02-07T05:00:47.429Z,21.27
2019-02-07T05:03:21.727Z,21.11
2019-02-07T05:05:56.124Z,21.25
2019-02-07T05:08:36.237Z,21.16
2019-02-07T05:11:11.460Z,21.57
2019-02-07T05:13:46.945Z,21.24
2019-02-07T05:16:20.839Z,21.42
2019-02-07T05:18:54.961Z,21.08
2019-02-07T05:21:28.927Z,20.93
2019-02-07T05:24:02.899Z,21.12
2019-02-07T05:26:36.725Z,21.29
2019-02-07T05:29:10.630Z,21.02
2019-02-07T05:31:44.269Z,20.43
2019-02-07T05:34:18.513Z,20.43
2019-02-07T05:36:52.765Z,21.12
2019-02-07T05:39:26.843Z,21.07
2019-02-07T05:42:01.306Z,20.94
2019-02-07T05:44:35.713Z,21.48
2019-02-07T05:47:10.339Z,20.89
2019-02-07T05:49:46.951Z,20.87
2019-02-07T05:52:21.462Z,20.99
2019-02-07T05:54:57.448Z,21.31
2019-02-07T05:57:32.187Z,21.12
2019-02-07T06:00:09.931Z,21.74
2019-02-07T06:02:44.460Z,21.36
2019-02-07T06:05:19.090Z,21.57
2019-02-07T06:07:54.641Z,21.15
2019-02-07T06:10:29.502Z,21.07
2019-02-07T06:13:04.310Z,21.51
2019-02-07T06:15:39.611Z,22.24
2019-02-07T06:18:16.103Z,21.70
2019-02-07T06:20:51.537Z,21.05
2019-02-07T06:23:26.643Z,21.64
2019-02-07T06:26:01.747Z,21.36
2019-02-07T06:28:36.844Z,21.46
2019-02-07T06:31:11.695Z,21.32
2019-02-07T06:33:46.361Z,21.89
2019-02-07T06:36:21.537Z,21.85
2019-02-07T06:38:56.182Z,21.68
2019-02-07T06:41:34.277Z,21.48
2019-02-07T06:44:08.679Z,21.55
2019-02-07T06:46:43.246Z,21.63
2019-02-07T06:49:17.757Z,21.63
2019-02-07T06:51:54.587Z,21.40
2019-02-07T06:54:29.547Z,21.51
2019-02-07T06:57:04.719Z,21.35
2019-02-07T06:59:41.029Z,21.52
2019-02-07T07:02:15.378Z,22.11
2019-02-07T07:04:51.299Z,21.62
2019-02-07T07:07:27.406Z,21.70
2019-02-07T07:10:04.421Z,22.35
2019-02-07T07:12:38.636Z,21.99
2019-02-07T07:15:16.456Z,21.90
2019-02-07T07:18:10.639Z,21.36
2019-02-07T07:20:45.380Z,21.60
2019-02-07T07:23:19.699Z,21.53
2019-02-07T07:25:55.493Z,21.60
2019-02-07T07:28:30.746Z,21.45
2019-02-07T07:31:05.237Z,21.50
2019-02-07T07:33:39.399Z,21.41
2019-02-07T07:36:16.189Z,21.37
2019-02-07T07:38:50.663Z,21.74
2019-02-07T07:41:27.044Z,21.64
2019-02-07T07:44:02.221Z,21.99
2019-02-07T07:46:40.939Z,22.14
2019-02-07T07:49:16.477Z,22.37
2019-02-07T07:51:59.225Z,22.19
2019-02-07T07:54:36.926Z,22.07
2019-02-07T07:57:12.654Z,22.03
2019-02-07T07:59:48.291Z,22.33
2019-02-07T08:02:25.870Z,22.21
2019-02-07T08:05:00.325Z,22.11
2019-02-07T08:07:34.973Z,22.29
2019-02-07T08:10:12.306Z,22.29
2019-02-07T08:12:47.167Z,22.39
2019-02-07T08:15:21.551Z,22.27
2019-02-07T08:17:56.017Z,22.19
2019-02-07T08:20:30.644Z,22.18
2019-02-07T08:23:05.032Z,22.58
2019-02-07T08:26:00.846Z,22.60
2019-02-07T08:28:37.276Z,22.41
2019-02-07T08:31:12.926Z,22.65
2019-02-07T08:33:50.059Z,22.26
2019-02-07T08:36:25.173Z,22.88
2019-02-07T08:39:02.953Z,22.77
2019-02-07T08:41:40.313Z,22.79
2019-02-07T08:44:15.626Z,22.85
2019-02-07T08:46:50.635Z,22.94
2019-02-07T08:49:27.486Z,22.75
2019-02-07T08:52:03.523Z,23.12
2019-02-07T08:54:38.871Z,22.54
2019-02-07T08:57:14.238Z,22.66
2019-02-07T08:59:49.822Z,22.87
2019-02-07T09:02:25.457Z,22.79
2019-02-07T09:05:04.031Z,23.18
2019-02-07T09:07:39.293Z,23.50
2019-02-07T09:10:19.343Z,22.98
2019-02-07T09:12:55.302Z,22.80
2019-02-07T09:15:31.155Z,23.05
2019-02-07T09:18:10.281Z,23.20
2019-02-07T09:20:44.663Z,23.22
2019-02-07T09:23:20.121Z,23.06
2019-02-07T09:25:56.943Z,22.91
2019-02-07T09:28:35.648Z,23.12
2019-02-07T09:31:11.708Z,23.01
2019-02-07T09:33:49.899Z,23.00
2019-02-07T09:36:28.241Z,23.60
2019-02-07T09:39:05.972Z,23.39
2019-02-07T09:41:41.381Z,23.25
2019-02-07T09:44:17.416Z,23.23
2019-02-07T09:46:53.212Z,23.43
2019-02-07T09:49:32.938Z,23.31
2019-02-07T09:52:11.537Z,23.00
2019-02-07T09:54:47.125Z,23.11
2019-02-07T09:57:22.410Z,23.20
2019-02-07T10:00:00.396Z,23.40
2019-02-07T10:02:37.038Z,23.82
2019-02-07T10:05:16.367Z,23.50
2019-02-07T10:07:56.096Z,23.65
2019-02-07T10:10:31.915Z,23.57
2019-02-07T10:13:08.119Z,23.88
2019-02-07T10:15:46.503Z,23.64
2019-02-07T10:18:32.819Z,23.94
2019-02-07T10:21:03.648Z,24.28
2019-02-07T10:23:41.992Z,23.79
2019-02-07T10:26:17.221Z,23.79
2019-02-07T10:28:53.020Z,23.62
2019-02-07T10:31:33.414Z,23.71
2019-02-07T10:34:09.190Z,24.25
2019-02-07T10:36:44.318Z,23.90
2019-02-07T10:39:20.132Z,23.90
2019-02-07T10:41:55.994Z,24.21
2019-02-07T10:44:34.498Z,24.23
2019-02-07T10:47:12.951Z,24.42
2019-02-07T10:49:58.673Z,23.88
2019-02-07T10:52:24.588Z,23.77
2019-02-07T10:55:00.830Z,24.04
2019-02-07T10:57:37.376Z,24.19
2019-02-07T11:00:26.488Z,24.40
2019-02-07T11:03:11.770Z,23.97
2019-02-07T11:05:49.452Z,23.90
2019-02-07T11:08:28.425Z,24.01
2019-02-07T11:11:03.743Z,23.88
2019-02-07T11:13:38.412Z,23.83
2019-02-07T11:16:13.026Z,24.07
2019-02-07T11:18:55.231Z,23.89
2019-02-07T11:21:25.290Z,23.75
2019-02-07T11:24:03.823Z,23.65
2019-02-07T11:26:42.146Z,23.49
2019-02-07T11:29:20.077Z,23.71
2019-02-07T11:31:55.165Z,23.59
2019-02-07T11:34:30.462Z,23.64
2019-02-07T11:37:08.120Z,23.68
2019-02-07T11:39:48.902Z,23.73
2019-02-07T11:42:23.918Z,23.86
2019-02-07T11:44:59.281Z,23.96
2019-02-07T11:47:34.909Z,24.25
2019-02-07T11:50:12.820Z,24.45
2019-02-07T11:52:54.304Z,24.38
2019-02-07T11:55:25.462Z,24.65
2019-02-07T11:58:01.504Z,24.60
2019-02-07T12:00:36.613Z,24.85
2019-02-07T12:03:12.436Z,24.67
2019-02-07T12:06:08.652Z,24.93
2019-02-07T12:08:42.938Z,24.84
2019-02-07T12:11:19.604Z,24.98
2019-02-07T12:13:54.549Z,24.87
2019-02-07T12:16:32.819Z,25.08
2019-02-07T12:19:17.772Z,25.06
2019-02-07T12:21:45.760Z,24.91
2019-02-07T12:24:26.465Z,24.74
2019-02-07T12:27:01.779Z,25.09
2019-02-07T12:29:44.332Z,25.03
2019-02-07T12:32:24.132Z,25.05
2019-02-07T12:35:02.913Z,25.09
2019-02-07T12:37:39.354Z,25.39
2019-02-07T12:40:17.917Z,25.34
2019-02-07T12:42:56.471Z,25.43
2019-02-07T12:45:35.132Z,25.33
2019-02-07T12:48:10.694Z,25.29
2019-02-07T12:50:47.397Z,24.96
2019-02-07T12:53:24.573Z,25.14
2019-02-07T12:56:01.319Z,24.76
2019-02-07T12:58:36.072Z,24.50
2019-02-07T13:01:15.144Z,24.78
2019-02-07T13:03:53.145Z,25.18
2019-02-07T13:06:29.132Z,25.42
2019-02-07T13:09:10.512Z,25.65
2019-02-07T13:11:43.718Z,25.76
2019-02-07T13:14:18.895Z,25.78
2019-02-07T13:16:58.152Z,25.83
2019-02-07T13:19:39.940Z,26.12
2019-02-07T13:22:10.182Z,25.86
2019-02-07T13:24:45.110Z,26.05
2019-02-07T13:27:25.211Z,26.25
2019-02-07T13:30:01.243Z,26.26
2019-02-07T13:32:43.024Z,26.12
2019-02-07T13:35:18.875Z,26.20
2019-02-07T13:37:53.796Z,25.36
2019-02-07T13:40:37.732Z,25.37
2019-02-07T13:43:13.890Z,25.57
2019-02-07T13:45:48.963Z,25.94
2019-02-07T13:48:24.498Z,25.43
2019-02-07T13:51:08.209Z,25.59
2019-02-07T13:53:43.319Z,25.44
2019-02-07T13:56:24.330Z,25.55
2019-02-07T13:59:00.797Z,25.56
2019-02-07T14:01:40.845Z,25.48
2019-02-07T14:04:15.832Z,25.35
2019-02-07T14:06:55.228Z,25.63
2019-02-07T14:09:27.956Z,25.77
2019-02-07T14:12:07.332Z,25.42
2019-02-07T14:14:43.730Z,25.62
2019-02-07T14:17:21.500Z,26.09
2019-02-07T14:20:03.871Z,26.03
2019-02-07T14:22:35.616Z,26.04
2019-02-07T14:25:15.877Z,26.07
2019-02-07T14:27:51.256Z,25.76
2019-02-07T14:30:29.366Z,25.75
2019-02-07T14:33:04.069Z,25.68
2019-02-07T14:35:52.418Z,25.68
2019-02-07T14:38:30.550Z,25.83
2019-02-07T14:41:06.293Z,25.86
2019-02-07T14:43:41.008Z,25.93
2019-02-07T14:46:27.263Z,26.00
2019-02-07T14:48:57.926Z,25.93
2019-02-07T14:51:35.810Z,26.51
2019-02-07T14:54:14.095Z,25.82
2019-02-07T14:56:51.233Z,25.21
2019-02-07T14:59:27.447Z,25.34
2019-02-07T15:02:12.687Z,25.43
2019-02-07T15:04:50.691Z,25.68
2019-02-07T15:07:25.372Z,25.90
2019-02-07T15:10:07.894Z,25.80
2019-02-07T15:12:45.320Z,25.74
2019-02-07T15:15:30.345Z,25.91
2019-02-07T15:18:05.731Z,25.94
2019-02-07T15:20:50.409Z,26.52
2019-02-07T15:23:25.153Z,25.91
2019-02-07T15:26:09.463Z,26.28
2019-02-07T15:28:44.183Z,26.29
2019-02-07T15:31:23.182Z,26.39
2019-02-07T15:33:58.778Z,26.92
2019-02-07T15:36:38.659Z,26.47
2019-02-07T15:39:17.954Z,26.47
2019-02-07T15:41:57.867Z,26.45
2019-02-07T15:44:36.417Z,26.89
2019-02-07T15:47:14.971Z,26.77
2019-02-07T15:49:52.632Z,26.70
2019-02-07T15:52:36.067Z,27.32
2019-02-07T15:55:15.508Z,26.61
2019-02-07T15:57:56.235Z,27.36
2019-02-07T16:00:35.438Z,27.08
2019-02-07T16:03:08.602Z,26.93
2019-02-07T16:05:45.545Z,27.02
2019-02-07T16:08:18.503Z,26.67
2019-02-07T16:10:56.674Z,26.83
2019-02-07T16:13:35.385Z,27.13
2019-02-07T16:16:12.670Z,27.00
2019-02-07T16:18:50.679Z,27.18
2019-02-07T16:21:22.195Z,27.08
2019-02-07T16:24:01.646Z,27.18
2019-02-07T16:26:40.620Z,27.34
2019-02-07T16:29:18.701Z,27.76
2019-02-07T16:32:03.811Z,27.26
2019-02-07T16:34:39.389Z,27.33
2019-02-07T16:37:42.460Z,27.06
2019-02-07T16:40:14.178Z,27.05
2019-02-07T16:42:31.310Z,27.32
2019-02-07T16:45:17.680Z,27.11
2019-02-07T16:47:47.149Z,27.15
2019-02-07T16:50:37.630Z,27.78
2019-02-07T16:53:13.845Z,27.53
2019-02-07T16:55:53.872Z,27.56
2019-02-07T16:58:32.124Z,27.98
2019-02-07T17:01:11.158Z,28.32
2019-02-07T17:03:46.358Z,27.96
2019-02-07T17:06:27.129Z,27.81
2019-02-07T17:09:05.213Z,28.48
2019-02-07T17:11:42.386Z,28.19
2019-02-07T17:14:17.257Z,27.98
2019-02-07T17:16:55.700Z,28.05
2019-02-07T17:19:41.847Z,28.07
2019-02-07T17:22:17.773Z,27.88
2019-02-07T17:24:57.336Z,28.33
2019-02-07T17:27:34.679Z,28.28
2019-02-07T17:30:07.303Z,28.61
2019-02-07T17:32:44.839Z,28.20
2019-02-07T17:35:25.592Z,28.35
2019-02-07T17:38:04.015Z,28.32
2019-02-07T17:40:44.123Z,28.62
2019-02-07T17:43:22.043Z,28.47
2019-02-07T17:46:00.539Z,28.52
2019-02-07T17:48:38.598Z,28.73
2019-02-07T17:51:22.921Z,28.85
2019-02-07T17:53:51.628Z,29.05
2019-02-07T17:56:32.287Z,29.04
2019-02-07T17:59:06.297Z,28.96
2019-02-07T18:01:44.321Z,29.13
2019-02-07T18:04:16.737Z,29.25
2019-02-07T18:06:54.449Z,29.04
2019-02-07T18:09:29.262Z,29.15
2019-02-07T18:12:04.337Z,29.48
2019-02-07T18:14:41.804Z,29.64
2019-02-07T18:17:24.900Z,29.32
2019-02-07T18:20:05.438Z,29.62
2019-02-07T18:22:41.062Z,29.83
2019-02-07T18:25:22.970Z,30.21
2019-02-07T18:27:55.350Z,29.66
2019-02-07T18:30:33.597Z,29.85
2019-02-07T18:33:06.681Z,30.14
2019-02-07T18:35:47.057Z,29.78
2019-02-07T18:38:25.411Z,29.67
2019-02-07T18:41:11.580Z,30.20
2019-02-07T18:43:49.938Z,30.30
2019-02-07T18:46:24.062Z,29.85
2019-02-07T18:48:58.714Z,29.97
2019-02-07T18:51:44.941Z,30.12
2019-02-07T18:54:10.036Z,30.90
2019-02-07T18:56:44.549Z,30.37
2019-02-07T18:59:21.763Z,30.28
2019-02-07T19:01:59.987Z,30.71
2019-02-07T19:04:34.793Z,30.71
2019-02-07T19:07:12.499Z,31.04
2019-02-07T19:09:47.268Z,31.17
2019-02-07T19:12:21.539Z,30.82
2019-02-07T19:15:12.862Z,30.81
2019-02-07T19:17:31.505Z,31.16
2019-02-07T19:20:07.312Z,30.96
2019-02-07T19:22:41.803Z,31.00
2019-02-07T19:25:16.839Z,30.86
2019-02-07T19:27:52.342Z,31.66
2019-02-07T19:30:34.701Z,31.52
2019-02-07T19:33:14.116Z,31.52
2019-02-07T19:35:45.106Z,31.55
2019-02-07T19:38:19.778Z,31.88
2019-02-07T19:40:54.341Z,31.90
2019-02-07T19:43:30.656Z,32.04
2019-02-07T19:46:05.404Z,31.76
2019-02-07T19:48:40.146Z,31.83
2019-02-07T19:51:16.974Z,32.29
2019-02-07T19:53:51.805Z,31.88
2019-02-07T19:56:28.616Z,31.60
2019-02-07T19:59:03.583Z,32.17
2019-02-07T20:01:40.113Z,31.67
2019-02-07T20:04:17.510Z,32.31
2019-02-07T20:06:52.480Z,31.80
2019-02-07T20:09:27.452Z,31.71
2019-02-07T20:12:02.596Z,32.47
2019-02-07T20:14:37.930Z,33.23
2019-02-07T20:17:14.219Z,32.26
2019-02-07T20:19:48.849Z,32.56
2019-02-07T20:22:25.767Z,33.13
2019-02-07T20:25:02.746Z,33.06
2019-02-07T20:27:39.062Z,33.48
2019-02-07T20:30:46.349Z,33.16
2019-02-07T20:33:21.228Z,33.00
2019-02-07T20:35:56.268Z,33.45
2019-02-07T20:38:31.445Z,33.44
2019-02-07T20:41:06.259Z,32.83
2019-02-07T20:43:40.759Z,33.17
2019-02-07T20:46:15.698Z,34.12
2019-02-07T20:48:50.424Z,33.75
2019-02-07T20:51:25.669Z,33.58
2019-02-07T20:54:01.481Z,33.36
2019-02-07T20:56:37.149Z,33.38
2019-02-07T20:59:11.787Z,34.05
2019-02-07T21:01:47.951Z,33.63
2019-02-07T21:04:22.711Z,33.89
2019-02-07T21:06:57.137Z,33.98
2019-02-07T21:09:31.928Z,33.72
2019-02-07T21:12:07.216Z,34.01
2019-02-07T21:14:43.515Z,34.78
2019-02-07T21:17:18.728Z,35.21
2019-02-07T21:19:52.297Z,35.38
2019-02-07T21:22:26.305Z,34.80
2019-02-07T21:24:59.810Z,35.14
2019-02-07T21:27:35.281Z,35.12
2019-02-07T21:30:12.881Z,34.41
2019-02-07T21:32:46.792Z,34.46
2019-02-07T21:35:22.185Z,34.73
2019-02-07T21:37:55.866Z,35.31
2019-02-07T21:40:32.170Z,35.37
2019-02-07T21:43:06.392Z,36.20
2019-02-07T21:45:41.931Z,35.45
2019-02-07T21:48:15.670Z,35.35
2019-02-07T21:50:49.133Z,35.07
2019-02-07T21:53:22.767Z,36.68
2019-02-07T21:55:58.050Z,36.26
2019-02-07T21:58:34.315Z,36.00
2019-02-07T22:01:09.310Z,36.14
2019-02-07T22:03:43.033Z,36.28
2019-02-07T22:06:17.056Z,35.88
2019-02-07T22:08:50.708Z,35.25
2019-02-07T22:11:24.327Z,34.46
2019-02-07T22:13:57.982Z,35.20
2019-02-07T22:16:31.784Z,34.36
2019-02-07T22:19:05.481Z,34.61
2019-02-07T22:21:39.144Z,33.86
2019-02-07T22:24:12.598Z,34.26
2019-02-07T22:26:47.383Z,34.07
2019-02-07T22:29:21.262Z,34.26
2019-02-07T22:31:54.826Z,34.03
2019-02-07T22:34:28.437Z,33.83
2019-02-07T22:37:02.069Z,33.95
2019-02-07T22:39:35.461Z,35.88
2019-02-07T22:42:09.137Z,34.71
2019-02-07T22:44:42.784Z,34.74
2019-02-07T22:47:16.358Z,35.28
2019-02-07T22:49:50.037Z,34.61
2019-02-07T22:52:23.891Z,34.84
2019-02-07T22:54:57.453Z,34.36
2019-02-07T22:57:31.566Z,34.01
2019-02-07T23:00:25.745Z,34.04
2019-02-07T23:03:01.058Z,33.99
2019-02-07T23:05:36.116Z,33.45
2019-02-07T23:08:11.503Z,33.71
2019-02-07T23:10:46.258Z,33.78
2019-02-07T23:13:19.980Z,33.46
2019-02-07T23:15:53.725Z,33.05
2019-02-07T23:18:27.208Z,33.13
2019-02-07T23:21:04.624Z,33.29
2019-02-07T23:23:38.207Z,33.79
2019-02-07T23:26:11.672Z,33.34
2019-02-07T23:28:45.209Z,32.95
2019-02-07T23:31:20.774Z,32.94
2019-02-07T23:33:54.396Z,32.59
2019-02-07T23:36:28.161Z,32.58
2019-02-07T23:39:01.790Z,32.95
2019-02-07T23:41:38.980Z,33.28
2019-02-07T23:44:13.395Z,32.41
2019-02-07T23:46:46.960Z,32.04
2019-02-07T23:49:20.580Z,32.73
2019-02-07T23:51:54.241Z,33.34
2019-02-07T23:54:27.773Z,32.04
2019-02-07T23:57:01.295Z,31.66
2019-02-07T23:59:34.839Z,30.79
